Time;durP1;ratioP1;P1;durP2;ratioP2;P2;SDS_P1;SDS_P2;PMS_P1;PMS_P2;Temp;Humidity;BMP_temperature;BMP_pressure;BME280_temperature;BME280_humidity;BME280_pressure;Samples;Min_cycle;Max_cycle;Signal;HPM_P1;HPM_P2
2022/05/17 00:00:16;;;;;;;6.60;1.10;;;18.40;99.90;;;;;;4183351;28;20629;-92
2022/05/17 00:02:17;;;;;;;4.35;1.10;;;18.40;99.90;;;;;;4217040;28;20177;-92
2022/05/17 00:04:18;;;;;;;5.00;1.15;;;18.40;99.90;;;;;;4183697;28;20240;-93
2022/05/17 00:06:18;;;;;;;4.50;1.05;;;18.50;99.90;;;;;;4183816;28;20277;-93
2022/05/17 00:08:19;;;;;;;4.75;0.93;;;18.50;99.90;;;;;;4183315;28;20171;-92
2022/05/17 00:10:21;;;;;;;6.43;1.33;;;18.50;99.90;;;;;;4199807;28;20186;-93
2022/05/17 00:12:22;;;;;;;3.13;1.00;;;18.60;99.90;;;;;;4183337;28;20172;-93
2022/05/17 00:14:23;;;;;;;5.90;1.08;;;18.70;99.90;;;;;;4199827;28;20186;-92
2022/05/17 00:16:25;;;;;;;4.90;1.30;;;18.60;99.90;;;;;;4183260;28;20187;-94
2022/05/17 00:18:26;;;;;;;3.35;0.85;;;18.60;99.90;;;;;;4199354;28;20647;-93
2022/05/17 00:20:27;;;;;;;4.20;0.93;;;18.60;99.90;;;;;;4182944;28;20187;-93
2022/05/17 00:22:27;;;;;;;4.70;1.20;;;18.60;99.90;;;;;;4183057;28;20302;-93
2022/05/17 00:24:29;;;;;;;7.72;1.08;;;18.70;99.90;;;;;;4199662;28;20178;-92
2022/05/17 00:26:30;;;;;;;9.65;1.35;;;18.70;99.90;;;;;;4183250;28;20175;-93
2022/05/17 00:28:31;;;;;;;7.80;1.25;;;18.70;99.90;;;;;;4183130;28;20255;-91
2022/05/17 00:30:32;;;;;;;8.95;1.45;;;18.80;99.90;;;;;;4182939;28;20676;-92
2022/05/17 00:32:33;;;;;;;5.32;1.20;;;18.80;99.90;;;;;;4182861;28;20183;-93
2022/05/17 00:34:34;;;;;;;5.05;0.95;;;18.80;99.90;;;;;;4182817;28;20198;-92
2022/05/17 00:36:36;;;;;;;4.95;1.05;;;18.80;99.90;;;;;;4182885;28;20175;-93
2022/05/17 00:38:37;;;;;;;4.28;1.00;;;18.80;99.90;;;;;;4182812;28;20525;-93
2022/05/17 00:40:38;;;;;;;5.13;1.63;;;18.80;99.90;;;;;;4182567;28;20329;-93
2022/05/17 00:42:38;;;;;;;6.65;1.35;;;18.80;99.90;;;;;;4198771;28;20612;-93
2022/05/17 00:44:42;;;;;;;4.97;1.40;;;18.70;99.90;;;;;;4182445;28;20528;-92
2022/05/17 00:47:08;;;;;;;7.10;1.08;;;18.60;99.90;;;;;;4182610;28;20219;-93
2022/05/17 00:49:12;;;;;;;3.83;1.33;;;18.70;99.90;;;;;;4182214;28;20253;-92
2022/05/17 00:51:13;;;;;;;4.43;1.38;;;18.70;99.90;;;;;;4182646;28;20179;-93
2022/05/17 00:53:20;;;;;;;3.58;1.30;;;18.80;99.90;;;;;;4198764;28;20215;-92
2022/05/17 00:55:43;;;;;;;4.97;1.35;;;18.70;99.90;;;;;;4199282;28;20174;-92
2022/05/17 00:57:51;;;;;;;7.25;1.42;;;18.80;99.90;;;;;;4199302;28;20582;-92
2022/05/17 00:59:55;;;;;;;9.55;1.27;;;18.70;99.90;;;;;;4215763;28;20193;-92
2022/05/17 01:01:56;;;;;;;5.97;1.30;;;18.70;99.90;;;;;;4199210;28;20182;-92
2022/05/17 01:04:05;;;;;;;8.07;1.17;;;18.70;99.90;;;;;;4182286;28;20215;-92
2022/05/17 01:06:06;;;;;;;4.55;1.17;;;18.70;99.90;;;;;;4198991;28;20170;-92
2022/05/17 01:08:10;;;;;;;5.35;1.20;;;18.70;99.90;;;;;;4198822;28;20167;-93
2022/05/17 01:10:12;;;;;;;3.50;1.05;;;18.80;99.90;;;;;;4198826;28;20194;-92
2022/05/17 01:12:13;;;;;;;6.43;1.27;;;18.70;99.90;;;;;;4198661;28;20186;-92
2022/05/17 01:16:33;;;;;;;7.72;1.30;;;18.60;99.90;;;;;;4198524;28;20643;-92
2022/05/17 01:18:37;;;;;;;6.15;1.30;;;18.60;99.90;;;;;;4198322;28;20201;-92
2022/05/17 01:20:39;;;;;;;5.35;1.10;;;18.60;99.90;;;;;;4198694;28;20190;-93
2022/05/17 01:22:40;;;;;;;3.85;0.90;;;18.60;99.90;;;;;;4198701;28;20297;-92
2022/05/17 01:24:41;;;;;;;3.90;1.15;;;18.60;99.90;;;;;;4182253;28;20183;-93
2022/05/17 01:26:44;;;;;;;6.57;1.33;;;18.60;99.90;;;;;;4182151;28;20177;-92
2022/05/17 01:28:44;;;;;;;6.47;1.27;;;18.60;99.90;;;;;;4182052;28;20168;-93
2022/05/17 01:30:46;;;;;;;5.03;1.00;;;18.50;99.90;;;;;;4182002;28;20647;-91
2022/05/17 01:32:47;;;;;;;6.28;1.02;;;18.50;99.90;;;;;;4181955;28;20301;-91
2022/05/17 01:34:48;;;;;;;4.80;1.02;;;18.50;99.90;;;;;;4198406;28;20651;-93
2022/05/17 01:36:49;;;;;;;6.43;1.48;;;18.50;99.90;;;;;;4198111;28;20183;-93
2022/05/17 01:38:51;;;;;;;2.95;0.98;;;18.50;99.90;;;;;;4181564;28;20167;-92
2022/05/17 01:40:52;;;;;;;5.10;1.17;;;18.50;99.90;;;;;;4181966;28;20218;-92
2022/05/17 01:42:53;;;;;;;7.60;1.20;;;18.40;99.90;;;;;;4198416;28;20218;-92
2022/05/17 01:44:53;;;;;;;6.40;1.23;;;18.50;99.90;;;;;;4182017;28;20172;-92
2022/05/17 01:46:54;;;;;;;3.70;1.05;;;18.40;99.90;;;;;;4181642;28;20531;-93
2022/05/17 01:48:55;;;;;;;8.15;1.60;;;18.40;99.90;;;;;;4181676;28;20171;-91
2022/05/17 01:50:56;;;;;;;5.07;1.30;;;18.30;99.90;;;;;;4198098;28;20190;-92
2022/05/17 01:52:56;;;;;;;8.27;1.20;;;18.30;99.90;;;;;;4181687;28;20258;-92
2022/05/17 01:54:58;;;;;;;6.68;1.20;;;18.30;99.90;;;;;;4197821;28;20220;-92
2022/05/17 01:56:58;;;;;;;4.90;1.30;;;18.30;99.90;;;;;;4181515;28;20563;-93
2022/05/17 01:58:59;;;;;;;5.90;1.35;;;18.30;99.90;;;;;;4197931;28;20232;-92
2022/05/17 02:01:01;;;;;;;9.60;1.60;;;18.30;99.90;;;;;;4181425;28;20234;-92
2022/05/17 02:03:02;;;;;;;5.82;1.27;;;18.20;99.90;;;;;;4181378;28;20211;-93
2022/05/17 02:05:04;;;;;;;7.60;1.67;;;18.20;99.90;;;;;;4181429;28;20195;-92
2022/05/17 02:07:05;;;;;;;4.68;1.40;;;18.20;99.90;;;;;;4181542;28;20167;-93
2022/05/17 02:09:06;;;;;;;6.78;1.27;;;18.20;99.90;;;;;;4197972;28;20179;-92
2022/05/17 02:11:08;;;;;;;4.50;1.20;;;18.20;99.90;;;;;;4181339;28;20223;-93
2022/05/17 02:13:08;;;;;;;4.15;1.10;;;18.30;99.90;;;;;;4181602;28;20261;-93
2022/05/17 02:15:11;;;;;;;3.92;1.20;;;18.30;99.90;;;;;;4181321;28;20528;-92
2022/05/17 02:17:12;;;;;;;5.13;1.50;;;18.40;99.90;;;;;;4181229;28;20179;-92
2022/05/17 02:19:13;;;;;;;3.22;1.00;;;18.40;99.90;;;;;;4180947;28;20191;-92
2022/05/17 02:21:14;;;;;;;3.80;1.30;;;18.50;99.90;;;;;;4181289;28;20549;-91
2022/05/17 02:23:14;;;;;;;4.22;1.00;;;18.50;99.90;;;;;;4197553;28;20256;-93
2022/05/17 02:25:15;;;;;;;5.88;1.08;;;18.50;99.90;;;;;;4197928;28;20178;-92
2022/05/17 02:27:16;;;;;;;6.35;1.55;;;18.60;99.90;;;;;;4181045;28;20175;-93
2022/05/17 02:29:17;;;;;;;4.10;1.10;;;18.60;99.90;;;;;;4197666;28;20313;-92
2022/05/17 02:31:18;;;;;;;3.97;1.00;;;18.70;99.90;;;;;;4181389;28;20314;-92
2022/05/17 02:33:19;;;;;;;7.65;1.42;;;18.70;99.90;;;;;;4197586;28;20167;-92
2022/05/17 02:35:19;;;;;;;6.43;1.00;;;18.70;99.90;;;;;;4197787;28;20166;-92
2022/05/17 02:37:20;;;;;;;6.50;1.08;;;18.80;99.90;;;;;;4181326;28;20171;-91
2022/05/17 02:39:21;;;;;;;6.00;1.48;;;18.40;99.90;;;;;;4180937;28;20195;-92
2022/05/17 02:41:23;;;;;;;5.95;1.10;;;17.90;99.90;;;;;;4181152;28;20282;-93
2022/05/17 02:43:24;;;;;;;12.07;1.60;;;17.60;99.90;;;;;;4181121;28;20278;-91
2022/05/17 02:45:25;;;;;;;6.00;1.30;;;17.50;99.90;;;;;;4180648;28;20204;-91
2022/05/17 02:47:25;;;;;;;6.05;1.20;;;17.50;99.90;;;;;;4180880;28;20674;-90
2022/05/17 02:49:27;;;;;;;5.25;1.40;;;17.50;99.90;;;;;;4180726;28;20202;-92
2022/05/17 02:51:28;;;;;;;5.95;1.30;;;17.70;99.90;;;;;;4181176;28;20172;-91
2022/05/17 02:53:28;;;;;;;6.68;1.33;;;17.70;99.90;;;;;;4180772;28;20205;-92
2022/05/17 02:55:31;;;;;;;9.20;1.17;;;17.80;99.90;;;;;;4197111;28;20175;-92
2022/05/17 02:57:32;;;;;;;3.22;1.20;;;17.80;99.90;;;;;;4180849;28;20168;-91
2022/05/17 02:59:34;;;;;;;10.48;1.40;;;17.80;99.90;;;;;;4180715;28;20668;-92
2022/05/17 03:01:34;;;;;;;6.50;1.50;;;17.80;99.90;;;;;;4214314;28;20597;-90
2022/05/17 03:03:40;;;;;;;7.10;1.58;;;18.00;99.90;;;;;;4180784;28;20267;-92
2022/05/17 03:05:40;;;;;;;6.88;1.30;;;18.00;99.90;;;;;;4180758;28;20626;-91
2022/05/17 03:07:42;;;;;;;4.95;1.30;;;18.00;99.90;;;;;;4197348;28;20253;-91
2022/05/17 03:09:42;;;;;;;10.13;1.85;;;18.60;99.90;;;;;;4181413;28;20229;-91
2022/05/17 03:11:43;;;;;;;11.35;1.70;;;19.10;99.90;;;;;;4180870;28;20190;-91
2022/05/17 03:13:46;;;;;;;5.32;1.60;;;19.40;99.90;;;;;;4180676;28;20540;-91
2022/05/17 03:15:50;;;;;;;4.47;1.67;;;18.80;99.90;;;;;;4180442;28;20171;-91
2022/05/17 03:17:51;;;;;;;7.72;1.42;;;18.30;99.90;;;;;;4180382;28;20190;-91
2022/05/17 03:19:54;;;;;;;4.57;1.30;;;17.90;99.90;;;;;;4180603;28;20192;-91
2022/05/17 03:21:54;;;;;;;5.13;1.40;;;17.80;99.90;;;;;;4197600;28;20196;-91
2022/05/17 03:23:56;;;;;;;3.45;1.23;;;17.80;99.90;;;;;;4180961;28;20203;-92
2022/05/17 03:25:56;;;;;;;5.47;1.38;;;17.80;99.90;;;;;;4181310;28;20223;-90
2022/05/17 03:27:57;;;;;;;7.38;1.80;;;17.70;99.90;;;;;;4180644;28;20168;-91
2022/05/17 03:29:58;;;;;;;4.45;1.45;;;17.70;99.90;;;;;;4197313;28;20214;-90
2022/05/17 03:32:00;;;;;;;7.72;1.63;;;17.80;99.90;;;;;;4182149;28;20247;-92
2022/05/17 03:34:01;;;;;;;4.35;1.30;;;17.80;99.90;;;;;;4200724;28;20183;-91
2022/05/17 03:36:02;;;;;;;7.10;1.45;;;18.10;99.90;;;;;;4184161;28;20838;-91
2022/05/17 03:38:04;;;;;;;6.93;1.48;;;18.30;99.90;;;;;;4184048;28;20632;-90
2022/05/17 03:40:07;;;;;;;10.00;1.52;;;18.80;99.90;;;;;;4183958;28;20279;-90
2022/05/17 03:42:09;;;;;;;6.15;1.63;;;19.10;99.90;;;;;;4200007;28;20216;-92
2022/05/17 03:44:10;;;;;;;7.78;1.83;;;18.80;99.90;;;;;;4183361;28;20208;-91
2022/05/17 03:46:11;;;;;;;7.10;1.90;;;18.40;99.90;;;;;;4183410;28;20194;-90
2022/05/17 03:48:11;;;;;;;6.35;1.60;;;18.70;99.90;;;;;;4183264;28;20171;-91
2022/05/17 03:50:14;;;;;;;6.65;1.88;;;19.10;99.90;;;;;;4182930;28;20199;-91
2022/05/17 03:52:16;;;;;;;7.57;1.48;;;19.20;99.90;;;;;;4183231;28;20178;-92
2022/05/17 03:54:19;;;;;;;7.53;1.98;;;19.00;99.90;;;;;;4183694;28;20595;-91
2022/05/17 03:56:20;;;;;;;5.50;1.50;;;18.60;99.90;;;;;;4183398;28;20679;-92
2022/05/17 03:58:21;;;;;;;7.90;2.17;;;18.20;99.90;;;;;;4183072;28;20262;-91
2022/05/17 04:00:22;;;;;;;14.52;2.30;;;18.00;99.90;;;;;;4199844;28;20195;-91
2022/05/17 04:02:23;;;;;;;12.38;2.50;;;17.80;99.90;;;;;;4183125;28;20540;-91
2022/05/17 04:04:24;;;;;;;7.35;1.98;;;17.70;99.90;;;;;;4182653;28;20191;-90
2022/05/17 04:06:25;;;;;;;5.88;1.98;;;17.70;99.90;;;;;;4183225;28;20168;-91
2022/05/17 04:08:26;;;;;;;7.93;1.92;;;17.70;99.90;;;;;;4183428;28;20175;-91
2022/05/17 04:10:27;;;;;;;8.68;2.28;;;17.70;99.90;;;;;;4199626;28;20702;-90
2022/05/17 04:12:28;;;;;;;8.10;1.63;;;17.80;99.90;;;;;;4183049;28;20250;-90
2022/05/17 04:14:29;;;;;;;9.80;2.20;;;17.80;99.90;;;;;;4183343;28;20237;-91
2022/05/17 04:16:34;;;;;;;9.10;1.70;;;17.90;99.90;;;;;;4216851;28;20177;-91
2022/05/17 04:18:34;;;;;;;12.13;2.10;;;18.00;99.90;;;;;;4199634;28;20171;-91
2022/05/17 04:20:35;;;;;;;7.28;1.90;;;18.20;99.90;;;;;;4183076;28;20770;-91
2022/05/17 04:22:36;;;;;;;10.43;1.92;;;18.40;99.90;;;;;;4183080;28;20685;-91
2022/05/17 04:24:41;;;;;;;5.35;1.70;;;18.50;99.90;;;;;;4199508;28;20200;-89
2022/05/17 04:26:42;;;;;;;16.42;2.20;;;18.60;99.90;;;;;;4199561;28;20171;-91
2022/05/17 04:28:42;;;;;;;9.18;2.00;;;18.50;99.90;;;;;;4182976;28;20663;-91
2022/05/17 04:30:44;;;;;;;7.97;2.10;;;18.50;99.90;;;;;;4182986;28;20188;-91
2022/05/17 04:32:46;;;;;;;6.43;1.95;;;18.40;99.90;;;;;;4182875;28;20167;-91
2022/05/17 04:34:47;;;;;;;9.10;2.17;;;18.20;99.90;;;;;;4182731;28;20175;-90
2022/05/17 04:36:48;;;;;;;6.70;1.80;;;18.20;99.90;;;;;;4182899;28;20175;-91
2022/05/17 04:38:49;;;;;;;7.38;2.22;;;18.20;99.90;;;;;;4182578;28;20251;-90
2022/05/17 04:40:49;;;;;;;9.68;2.00;;;18.20;99.90;;;;;;4199580;28;20170;-90
2022/05/17 04:42:53;;;;;;;6.32;2.20;;;18.20;99.90;;;;;;4181955;28;20234;-91
2022/05/17 04:44:53;;;;;;;10.70;2.47;;;18.20;99.90;;;;;;4182779;28;20682;-91
2022/05/17 04:46:55;;;;;;;5.80;1.85;;;18.20;99.90;;;;;;4182786;28;20172;-91
2022/05/17 04:48:56;;;;;;;7.35;2.05;;;18.30;99.90;;;;;;4182178;28;20257;-90
2022/05/17 04:50:57;;;;;;;6.55;1.70;;;18.30;99.90;;;;;;4198978;28;20620;-90
2022/05/17 04:52:58;;;;;;;5.90;1.65;;;18.20;99.90;;;;;;4182612;28;20562;-92
2022/05/17 04:54:59;;;;;;;5.68;1.88;;;18.10;99.90;;;;;;4199173;28;20175;-92
2022/05/17 04:57:00;;;;;;;9.88;2.30;;;17.90;99.90;;;;;;4182466;28;20187;-90
2022/05/17 04:59:02;;;;;;;8.25;1.77;;;17.50;99.90;;;;;;4182723;28;20172;-91
2022/05/17 05:01:04;;;;;;;9.50;1.85;;;17.50;99.90;;;;;;4182671;28;20179;-91
2022/05/17 05:03:05;;;;;;;9.77;2.30;;;17.50;99.90;;;;;;4182293;28;20699;-91
2022/05/17 05:05:06;;;;;;;12.60;2.28;;;17.50;99.90;;;;;;4182326;28;20290;-92
2022/05/17 05:07:07;;;;;;;7.18;2.00;;;17.50;99.90;;;;;;4182416;28;20348;-92
2022/05/17 05:09:10;;;;;;;5.93;1.83;;;17.60;99.90;;;;;;4182314;28;20176;-90
2022/05/17 05:11:11;;;;;;;7.50;1.70;;;17.70;99.90;;;;;;4198970;28;20167;-91
2022/05/17 05:13:17;;;;;;;9.77;1.90;;;18.00;99.90;;;;;;4182086;28;20172;-92
2022/05/17 05:15:17;;;;;;;10.25;2.40;;;18.00;99.90;;;;;;4181950;28;20179;-90
2022/05/17 05:17:18;;;;;;;8.90;1.88;;;18.10;99.90;;;;;;4182247;28;20171;-92
2022/05/17 05:19:19;;;;;;;5.30;1.60;;;18.00;99.90;;;;;;4198546;28;20277;-91
2022/05/17 05:21:20;;;;;;;8.73;2.13;;;17.90;99.90;;;;;;4181940;28;20164;-90
2022/05/17 05:23:20;;;;;;;9.63;2.15;;;18.10;99.90;;;;;;4182247;28;20214;-91
2022/05/17 05:25:21;;;;;;;9.88;1.83;;;18.40;99.90;;;;;;4182253;28;20186;-91
2022/05/17 05:27:22;;;;;;;10.90;2.35;;;18.90;99.90;;;;;;4182066;28;20206;-91
2022/05/17 05:29:23;;;;;;;5.32;1.83;;;18.90;99.90;;;;;;4181889;28;20183;-91
2022/05/17 05:31:24;;;;;;;6.22;1.70;;;18.70;99.90;;;;;;4182157;28;20175;-90
2022/05/17 05:33:24;;;;;;;11.88;2.28;;;19.00;99.90;;;;;;4198368;28;20175;-91
2022/05/17 05:35:25;;;;;;;6.95;2.10;;;19.20;99.90;;;;;;4198696;28;20181;-91
2022/05/17 05:37:26;;;;;;;7.68;2.08;;;19.60;99.90;;;;;;4181978;28;20163;-91
2022/05/17 05:39:29;;;;;;;9.60;2.75;;;19.20;99.90;;;;;;4181970;28;20191;-91
2022/05/17 05:41:29;;;;;;;7.32;1.83;;;18.90;99.90;;;;;;4182149;28;20705;-91
2022/05/17 05:43:30;;;;;;;8.48;1.70;;;18.80;99.90;;;;;;4198018;28;20211;-92
2022/05/17 05:45:31;;;;;;;7.90;2.58;;;18.50;99.90;;;;;;4181764;28;20171;-91
2022/05/17 05:47:32;;;;;;;12.38;2.20;;;18.30;99.90;;;;;;4181643;28;20168;-90
2022/05/17 05:49:33;;;;;;;6.80;2.58;;;18.40;99.90;;;;;;4198005;28;20194;-90
2022/05/17 05:51:33;;;;;;;9.60;2.15;;;18.30;99.90;;;;;;4181446;28;20168;-90
2022/05/17 05:53:34;;;;;;;8.88;2.20;;;18.20;99.90;;;;;;4197603;28;20221;-90
2022/05/17 05:55:37;;;;;;;9.70;2.40;;;18.20;99.90;;;;;;4181020;28;20616;-90
2022/05/17 05:57:39;;;;;;;7.40;2.10;;;17.80;99.90;;;;;;4181528;28;20171;-89
2022/05/17 05:59:40;;;;;;;7.00;1.98;;;17.70;99.90;;;;;;4181757;28;20192;-90
2022/05/17 06:01:41;;;;;;;4.82;1.92;;;17.70;99.90;;;;;;4181536;28;20270;-92
2022/05/17 06:03:43;;;;;;;12.52;2.20;;;17.60;99.90;;;;;;4181309;28;20222;-90
2022/05/17 06:05:43;;;;;;;7.03;2.03;;;17.70;99.90;;;;;;4181297;28;20171;-92
2022/05/17 06:07:45;;;;;;;7.00;2.13;;;17.70;99.90;;;;;;4181168;28;20171;-91
2022/05/17 06:09:45;;;;;;;6.78;1.98;;;17.80;99.90;;;;;;4181117;28;20191;-90
2022/05/17 06:11:46;;;;;;;6.28;2.00;;;17.90;99.90;;;;;;4181361;28;20174;-91
2022/05/17 06:13:47;;;;;;;8.77;2.00;;;18.10;99.90;;;;;;4197932;28;20285;-91
2022/05/17 06:15:50;;;;;;;7.72;1.98;;;18.30;99.90;;;;;;4181046;28;20167;-90
2022/05/17 06:17:51;;;;;;;8.65;2.42;;;18.40;99.90;;;;;;4180996;28;20171;-92
2022/05/17 06:19:52;;;;;;;8.32;2.00;;;18.50;99.90;;;;;;4181311;28;20263;-90
2022/05/17 06:21:53;;;;;;;10.57;2.00;;;18.70;99.90;;;;;;4197769;28;20261;-90
2022/05/17 06:23:54;;;;;;;10.13;2.13;;;18.70;99.90;;;;;;4181215;28;20579;-91
2022/05/17 06:25:54;;;;;;;7.53;2.05;;;19.00;99.90;;;;;;4181112;28;20175;-91
2022/05/17 06:27:55;;;;;;;8.88;1.90;;;19.00;99.90;;;;;;4181189;28;20175;-90
2022/05/17 06:29:56;;;;;;;8.23;2.20;;;19.20;99.90;;;;;;4181304;28;20183;-89
2022/05/17 06:31:56;;;;;;;13.45;2.25;;;19.30;99.90;;;;;;4197851;28;20559;-89
2022/05/17 06:33:57;;;;;;;14.82;2.40;;;19.50;99.90;;;;;;4181238;28;20262;-89
2022/05/17 06:35:58;;;;;;;10.38;2.53;;;19.60;99.90;;;;;;4181371;28;20174;-89
2022/05/17 06:37:58;;;;;;;6.97;2.00;;;19.70;99.90;;;;;;4197866;28;20253;-90
2022/05/17 06:39:59;;;;;;;15.77;2.65;;;19.70;99.90;;;;;;4198185;28;20198;-90
2022/05/17 06:42:01;;;;;;;8.27;2.50;;;20.00;99.90;;;;;;4181234;28;20644;-91
2022/05/17 06:44:05;;;;;;;13.02;2.63;;;20.70;99.90;;;;;;4181428;28;20214;-89
2022/05/17 06:46:06;;;;;;;14.98;3.25;;;21.30;99.90;;;;;;4197838;28;20254;-91
2022/05/17 06:48:07;;;;;;;11.63;3.03;;;21.60;99.90;;;;;;4197648;28;20209;-90
2022/05/17 06:50:08;;;;;;;13.63;2.85;;;21.10;99.90;;;;;;4181103;28;20194;-90
2022/05/17 06:52:09;;;;;;;14.25;3.20;;;21.50;99.90;;;;;;4181064;28;20275;-92
2022/05/17 06:54:10;;;;;;;9.45;2.90;;;21.10;99.90;;;;;;4197629;28;20183;-90
2022/05/17 06:56:11;;;;;;;10.35;3.08;;;20.80;99.90;;;;;;4197723;28;20162;-91
2022/05/17 06:58:12;;;;;;;13.60;3.13;;;21.40;99.90;;;;;;4180955;28;20207;-92
2022/05/17 07:00:13;;;;;;;10.80;3.05;;;21.60;99.90;;;;;;4180690;28;20207;-89
2022/05/17 07:02:14;;;;;;;10.18;3.13;;;21.20;99.90;;;;;;4181171;28;20193;-91
2022/05/17 07:04:16;;;;;;;9.77;3.25;;;21.30;99.90;;;;;;4181110;28;20231;-92
2022/05/17 07:06:17;;;;;;;12.35;3.55;;;21.40;99.90;;;;;;4199790;28;20166;-88
2022/05/17 07:08:19;;;;;;;11.07;3.40;;;21.60;99.90;;;;;;4184457;28;20178;-90
2022/05/17 07:14:59;;;;;;;10.88;3.28;;;21.60;99.90;;;;;;4200806;28;20540;-89
2022/05/17 07:17:00;;;;;;;15.55;3.83;;;21.40;99.90;;;;;;4217676;28;20697;-91
2022/05/17 07:19:01;;;;;;;10.95;3.20;;;21.60;99.90;;;;;;4200486;28;20163;-88
2022/05/17 07:21:02;;;;;;;13.48;3.30;;;21.30;99.90;;;;;;4184030;28;20187;-91
2022/05/17 07:23:03;;;;;;;8.50;3.45;;;21.20;99.90;;;;;;4183927;28;20205;-90
2022/05/17 07:25:04;;;;;;;12.48;3.33;;;20.90;99.90;;;;;;4200988;28;20181;-90
2022/05/17 07:27:06;;;;;;;13.32;3.20;;;20.80;99.90;;;;;;4183446;28;20672;-91
2022/05/17 07:29:06;;;;;;;12.27;4.10;;;21.00;99.90;;;;;;4184209;28;20267;-91
2022/05/17 07:31:08;;;;;;;13.05;4.00;;;21.30;99.90;;;;;;4200886;28;20512;-91
2022/05/17 07:33:10;;;;;;;14.90;4.05;;;21.90;99.90;;;;;;4184160;28;20225;-88
2022/05/17 07:35:11;;;;;;;9.88;3.53;;;22.00;99.90;;;;;;4200451;28;20527;-89
2022/05/17 07:37:12;;;;;;;14.55;3.90;;;22.20;99.90;;;;;;4183894;28;20180;-89
2022/05/17 07:39:13;;;;;;;13.95;4.03;;;22.70;99.90;;;;;;4183567;28;20190;-91
2022/05/17 07:41:13;;;;;;;11.65;3.65;;;22.50;99.90;;;;;;4183804;28;20171;-92
2022/05/17 07:43:14;;;;;;;12.95;4.05;;;22.80;99.90;;;;;;4183389;28;20207;-91
2022/05/17 07:45:15;;;;;;;11.18;3.95;;;23.50;99.90;;;;;;4183500;28;20175;-90
2022/05/17 07:47:16;;;;;;;10.75;3.60;;;24.30;99.90;;;;;;4200474;28;20182;-90
2022/05/17 07:49:16;;;;;;;13.50;4.10;;;24.80;99.90;;;;;;4183535;28;20651;-91
2022/05/17 07:51:17;;;;;;;9.13;3.92;;;24.10;99.90;;;;;;4200323;28;20179;-90
2022/05/17 07:53:21;;;;;;;11.50;4.25;;;24.30;99.90;;;;;;4183898;28;20171;-89
2022/05/17 07:55:21;;;;;;;13.25;4.28;;;24.70;99.90;;;;;;4183443;28;20216;-89
2022/05/17 07:57:23;;;;;;;9.75;4.00;;;25.20;99.90;;;;;;4200196;28;20625;-91
2022/05/17 07:59:24;;;;;;;12.82;4.63;;;26.10;99.90;;;;;;4183413;28;20218;-89
2022/05/17 08:01:24;;;;;;;7.60;3.88;;;27.20;99.90;;;;;;4200098;28;20202;-90
2022/05/17 08:03:25;;;;;;;10.50;4.20;;;28.20;99.90;;;;;;4199846;28;20203;-89
2022/05/17 08:05:28;;;;;;;9.00;3.65;;;29.00;99.90;;;;;;4183524;28;20594;-90
2022/05/17 08:07:28;;;;;;;10.18;3.78;;;30.30;99.90;;;;;;4183564;28;20206;-91
2022/05/17 08:09:29;;;;;;;9.13;4.15;;;30.80;99.90;;;;;;4199998;28;20195;-91
2022/05/17 08:11:30;;;;;;;8.43;3.70;;;31.20;99.90;;;;;;4183293;28;20660;-92
2022/05/17 08:13:31;;;;;;;8.93;4.10;;;31.60;99.90;;;;;;4199896;28;20159;-91
2022/05/17 08:15:33;;;;;;;12.82;4.10;;;31.40;99.90;;;;;;4199797;28;20173;-90
2022/05/17 08:17:33;;;;;;;8.13;4.47;;;31.30;99.90;;;;;;4182522;28;20179;-89
2022/05/17 08:19:38;;;;;;;13.55;4.55;;;31.60;99.90;;;;;;4199620;28;20199;-92
2022/05/17 08:21:39;;;;;;;14.07;5.72;;;31.70;99.90;;;;;;4199615;28;20174;-94
2022/05/17 08:23:40;;;;;;;10.95;4.80;;;31.80;99.90;;;;;;4182782;28;20655;-91
2022/05/17 08:28:01;;;;;;;8.75;4.40;;;32.00;99.90;;;;;;4198943;28;20231;-91
2022/05/17 08:30:18;;;;;;;12.10;5.25;;;32.00;99.90;;;;;;4198781;28;20666;-91
2022/05/17 08:34:38;;;;;;;8.38;5.30;;;32.10;99.90;;;;;;4199286;28;20171;-90
2022/05/17 08:36:39;;;;;;;7.68;4.88;;;31.80;99.90;;;;;;4199192;28;20600;-90
2022/05/17 08:38:45;;;;;;;9.60;5.00;;;31.50;99.90;;;;;;4183012;28;20253;-93
2022/05/17 08:40:57;;;;;;;9.27;4.95;;;32.00;99.90;;;;;;4182832;28;20191;-89
2022/05/17 08:43:13;;;;;;;9.88;5.85;;;32.40;99.90;;;;;;4215947;28;20205;-94
2022/05/17 08:45:18;;;;;;;8.90;5.45;;;32.60;99.90;;;;;;4182548;28;20236;-94
2022/05/17 08:47:28;;;;;;;11.00;5.25;;;33.00;99.90;;;;;;4182915;28;20194;-94
2022/05/17 08:49:41;;;;;;;9.30;4.90;;;32.90;99.90;;;;;;4182857;28;20190;-92
2022/05/17 08:51:46;;;;;;;10.32;5.03;;;32.80;99.90;;;;;;4183360;28;20563;-89
2022/05/17 08:53:47;;;;;;;13.25;5.72;;;31.80;99.90;;;;;;4182992;28;20179;-92
2022/05/17 08:55:50;;;;;;;11.43;5.38;;;30.90;99.90;;;;;;4182643;28;20182;-92
2022/05/17 08:58:01;;;;;;;8.82;5.40;;;30.70;99.90;;;;;;4199075;28;20165;-91
2022/05/17 09:00:12;;;;;;;12.38;5.53;;;31.60;99.90;;;;;;4182642;28;20201;-95
2022/05/17 09:02:43;;;;;;;12.15;5.88;;;31.80;99.90;;;;;;4199116;28;20163;-93
2022/05/17 09:05:03;;;;;;;10.00;5.53;;;31.60;99.90;;;;;;4182732;28;20667;-91
2022/05/17 09:07:12;;;;;;;5.65;4.40;;;31.20;99.90;;;;;;4198958;28;20174;-89
2022/05/17 09:09:21;;;;;;;14.23;4.10;;;30.50;99.90;;;;;;4182437;28;20205;-90
2022/05/17 09:11:37;;;;;;;8.95;4.85;;;30.20;99.90;;;;;;4182400;28;20177;-93
2022/05/17 09:13:53;;;;;;;8.15;4.75;;;30.10;99.90;;;;;;4182258;28;20167;-89
2022/05/17 09:15:57;;;;;;;9.90;5.50;;;30.70;99.90;;;;;;4182349;28;20681;-90
2022/05/17 09:18:06;;;;;;;13.73;5.10;;;30.70;99.90;;;;;;4198880;28;20166;-94
2022/05/17 09:20:09;;;;;;;18.65;4.93;;;31.40;99.90;;;;;;4198646;28;20185;-90
2022/05/17 09:22:10;;;;;;;8.70;4.18;;;31.30;99.90;;;;;;4198821;28;20617;-89
2022/05/17 09:24:17;;;;;;;8.85;3.60;;;30.70;99.90;;;;;;4182231;28;20203;-93
2022/05/17 09:26:20;;;;;;;7.72;3.40;;;31.20;99.90;;;;;;4198777;28;20166;-91
2022/05/17 09:28:27;;;;;;;10.43;4.20;;;31.50;99.90;;;;;;4182043;28;20201;-92
2022/05/17 09:30:35;;;;;;;9.93;4.28;;;30.80;99.90;;;;;;4198979;28;20186;-89
2022/05/17 09:32:44;;;;;;;9.02;3.92;;;30.00;99.90;;;;;;4198762;28;20177;-92
2022/05/17 09:34:45;;;;;;;5.85;3.42;;;30.30;99.90;;;;;;4198737;28;20249;-89
2022/05/17 09:36:56;;;;;;;6.63;3.03;;;30.50;99.90;;;;;;4198630;28;20170;-89
2022/05/17 09:38:59;;;;;;;9.18;3.58;;;30.60;99.90;;;;;;4198594;28;20703;-89
2022/05/17 09:40:59;;;;;;;9.73;3.47;;;30.80;99.90;;;;;;4198437;28;20292;-91
2022/05/17 09:43:04;;;;;;;4.70;2.40;;;31.10;99.90;;;;;;4181757;28;20272;-94
2022/05/17 09:45:10;;;;;;;5.30;2.30;;;31.30;99.90;;;;;;4181709;28;20182;-91
2022/05/17 09:47:28;;;;;;;7.40;2.20;;;31.20;99.90;;;;;;4198773;28;20166;-89
2022/05/17 09:54:39;;;;;;;7.72;2.28;;;30.60;99.90;;;;;;4198302;28;20254;-91
2022/05/17 09:56:40;;;;;;;9.10;2.05;;;30.50;99.90;;;;;;4181694;28;20182;-89
2022/05/17 09:58:43;;;;;;;6.35;1.70;;;30.40;99.90;;;;;;4198189;28;20527;-91
2022/05/17 10:00:46;;;;;;;4.85;1.95;;;30.20;99.90;;;;;;4182123;28;20268;-92
2022/05/17 10:02:51;;;;;;;5.72;1.63;;;30.40;99.90;;;;;;4181144;28;20187;-89
2022/05/17 10:04:51;;;;;;;9.88;1.80;;;30.90;99.90;;;;;;4181083;28;20240;-94
2022/05/17 10:06:56;;;;;;;5.25;2.08;;;31.60;99.90;;;;;;4197904;28;20174;-90
2022/05/17 10:09:01;;;;;;;3.65;1.73;;;31.20;99.90;;;;;;4181258;28;20186;-93
2022/05/17 10:11:16;;;;;;;6.78;2.20;;;31.50;99.90;;;;;;4181429;28;20679;-89
2022/05/17 10:13:30;;;;;;;7.53;1.90;;;31.30;99.90;;;;;;4181659;28;20181;-90
2022/05/17 10:15:33;;;;;;;6.55;1.50;;;31.50;99.90;;;;;;4182034;28;20685;-91
2022/05/17 10:17:45;;;;;;;9.57;2.00;;;32.30;99.90;;;;;;4216169;28;20173;-93
2022/05/17 10:20:00;;;;;;;6.55;1.80;;;31.10;99.90;;;;;;4181901;28;20691;-92
2022/05/17 10:22:28;;;;;;;5.22;1.58;;;31.00;99.90;;;;;;4198164;28;20213;-90
2022/05/17 10:24:35;;;;;;;8.20;1.60;;;30.20;99.90;;;;;;4197819;28;20658;-93
2022/05/17 10:26:42;;;;;;;2.97;1.45;;;30.50;99.90;;;;;;4181257;28;20182;-89
2022/05/17 10:28:52;;;;;;;4.70;1.70;;;30.00;99.90;;;;;;4180924;28;20602;-93
2022/05/17 10:31:02;;;;;;;4.75;1.17;;;29.50;99.90;;;;;;4197456;28;20236;-91
2022/05/17 10:33:12;;;;;;;2.58;1.13;;;29.10;99.90;;;;;;4197092;28;20179;-93
2022/05/17 10:35:28;;;;;;;2.55;1.00;;;29.10;99.90;;;;;;4197465;28;20163;-95
2022/05/17 10:37:36;;;;;;;3.95;1.40;;;29.00;99.90;;;;;;4181238;28;20186;-89
2022/05/17 10:39:43;;;;;;;3.10;1.10;;;28.90;99.90;;;;;;4181163;28;20651;-91
2022/05/17 10:41:44;;;;;;;5.28;1.40;;;28.70;99.90;;;;;;4181608;28;20176;-89
2022/05/17 10:43:48;;;;;;;3.50;1.20;;;28.40;99.90;;;;;;4181239;28;20254;-88
2022/05/17 10:46:11;;;;;;;2.92;1.08;;;28.40;99.90;;;;;;4197616;28;20171;-88
2022/05/17 10:48:48;;;;;;;3.33;1.10;;;28.70;99.90;;;;;;4171251;28;20225;-91
2022/05/17 10:50:57;;;;;;;2.50;0.95;;;29.00;99.90;;;;;;4181350;28;20179;-93
2022/05/17 10:52:58;;;;;;;2.53;1.00;;;28.70;99.90;;;;;;4180809;28;20206;-93
2022/05/17 10:55:17;;;;;;;3.35;1.40;;;28.60;99.90;;;;;;4197698;28;20265;-94